EDT,Max TemperatureF,Mean TemperatureF,Min TemperatureF,Max Dew PointF,MeanDew PointF,Min DewpointF,Max Humidity, Mean Humidity, Min Humidity, Max Sea Level PressureIn, Mean Sea Level PressureIn, Min Sea Level PressureIn, Max VisibilityMiles, Mean VisibilityMiles, Min VisibilityMiles, Max Wind SpeedMPH, Mean Wind SpeedMPH, Max Gust SpeedMPH,PrecipitationIn, CloudCover, Events, WindDirDegrees
2011-9-1,86,74,61,70,65,58,100,76,51,30.21,30.14,30.08,10,7,1,29,2,36,0.26,2,Rain-Thunderstorm,155
2011-9-2,86,76,65,72,68,64,100,83,65,30.10,30.07,29.99,10,5,0,10,3,14,T,6,Fog-Rain-Thunderstorm,115
2011-9-3,87,76,65,73,70,65,100,80,59,30.09,30.01,29.96,10,8,4,9,3,12,0.00,3,,165
2011-9-4,89,77,65,72,68,64,100,75,50,29.99,29.92,29.81,10,4,1,15,6,25,0.22,2,Rain,199
2011-9-5,79,74,69,73,69,66,94,84,74,29.85,29.80,29.73,10,10,4,16,4,22,0.17,7,Rain-Thunderstorm,190
2011-9-6,68,64,59,70,60,57,100,95,90,29.93,29.87,29.80,10,7,2,30,15,41,1.69,8,Rain-Thunderstorm,34
2011-9-7,78,69,60,65,62,58,100,77,54,29.97,29.93,29.89,10,7,1,13,4,18,0.02,6,Rain,38
2011-9-8,80,71,61,66,63,61,100,76,51,29.95,29.92,29.85,10,6,0,8,2,12,0.00,4,Fog,52
2011-9-9,82,72,62,67,64,61,100,74,47,29.94,29.90,29.84,10,5,0,10,2,16,0.00,4,Fog,238
2011-9-10,83,71,58,64,59,55,100,70,40,30.03,29.97,29.92,10,8,2,9,2,15,0.00,1,,235
2011-9-11,83,69,55,64,59,55,100,71,42,30.12,30.06,30.02,10,10,7,12,1,17,0.00,2,,265
2011-9-12,83,70,56,63,59,55,100,72,43,30.12,30.07,30.00,10,8,1,12,2,17,T,1,Rain,264
2011-9-13,84,70,56,63,59,55,100,70,40,30.08,30.02,29.97,10,8,2,9,1,15,0.00,0,,222
2011-9-14,87,72,56,67,61,55,100,72,44,30.02,29.98,29.93,10,7,1,9,1,13,0.00,0,,190
2011-9-15,81,69,56,66,60,41,100,78,55,30.21,29.95,29.88,10,5,0,17,6,25,0.00,3,Fog,2
2011-9-16,61,53,44,48,41,38,83,63,42,30.38,30.32,30.24,10,10,10,15,5,20,0.00,4,,33
2011-9-17,61,58,54,54,49,45,93,79,64,30.38,30.35,30.31,10,10,10,14,8,18,T,8,Rain,35
2011-9-18,68,61,54,55,52,46,93,73,52,30.38,30.35,30.30,10,10,10,16,6,21,0.00,7,,36
2011-9-19,67,61,55,59,56,53,97,83,68,30.31,30.24,30.15,10,10,8,8,3,10,0.00,8,,96
2011-9-20,75,67,58,64,61,58,100,84,68,30.18,30.14,30.10,10,9,3,9,2,13,0.08,4,Rain,198
2011-9-21,71,66,61,67,65,61,100,90,79,30.20,30.16,30.11,10,8,4,6,1,7,0.01,7,Rain,74
2011-9-22,74,70,66,68,67,64,100,90,79,30.18,30.14,30.09,10,6,0,9,3,10,0.27,6,Fog-Rain,186
2011-9-23,73,68,62,68,66,63,100,92,84,30.15,30.03,29.92,10,4,0,9,1,15,1.37,6,Fog-Rain,200
2011-9-24,73,66,59,67,63,59,100,92,84,30.10,30.04,29.98,10,7,0,10,4,15,T,6,Fog-Rain,44
2011-9-25,76,71,66,70,67,64,100,90,79,30.11,30.07,30.00,10,7,0,12,3,15,0.08,7,Fog-Rain,86
2011-9-26,76,72,67,70,67,66,100,87,74,30.04,29.98,29.91,10,9,1,13,4,15,0.02,8,Thunderstorm,144
2011-9-27,84,74,64,71,68,63,100,76,51,29.94,29.90,29.82,10,10,6,17,5,22,T,5,Rain,182
2011-9-28,78,69,60,66,64,61,100,80,60,29.91,29.88,29.81,10,5,0,21,3,25,0.29,5,Fog-Rain-Thunderstorm,207
2011-9-29,77,65,53,61,57,50,100,71,41,29.86,29.82,29.77,10,5,1,13,3,17,0.01,1,Rain,235
2011-9-30,73,63,52,58,49,43,100,69,38,29.79,29.76,29.71,10,10,9,15,5,23,0.00,3,,253